sensor_id;sensor_type;location;lat;lon;timestamp;P1;durP1;ratioP1;P2;durP2;ratioP2
24559;SDS011;12727;49.934;8.656;2023-03-26T00:00:57;6.72;;;1.30;;
24559;SDS011;12727;49.934;8.656;2023-03-26T00:03:23;6.00;;;1.10;;
24559;SDS011;12727;49.934;8.656;2023-03-26T00:05:59;5.47;;;1.13;;
24559;SDS011;12727;49.934;8.656;2023-03-26T00:08:27;4.80;;;0.90;;
24559;SDS011;12727;49.934;8.656;2023-03-26T00:10:52;4.82;;;1.00;;
24559;SDS011;12727;49.934;8.656;2023-03-26T00:13:18;4.18;;;1.08;;
24559;SDS011;12727;49.934;8.656;2023-03-26T00:15:43;7.18;;;1.02;;
24559;SDS011;12727;49.934;8.656;2023-03-26T00:18:09;8.07;;;1.30;;
24559;SDS011;12727;49.934;8.656;2023-03-26T00:20:34;7.90;;;1.17;;
24559;SDS011;12727;49.934;8.656;2023-03-26T00:23:02;5.90;;;1.10;;
24559;SDS011;12727;49.934;8.656;2023-03-26T00:25:28;8.80;;;1.02;;
24559;SDS011;12727;49.934;8.656;2023-03-26T00:27:53;5.68;;;1.20;;
24559;SDS011;12727;49.934;8.656;2023-03-26T00:30:19;5.00;;;1.08;;
24559;SDS011;12727;49.934;8.656;2023-03-26T00:32:44;8.98;;;1.10;;
24559;SDS011;12727;49.934;8.656;2023-03-26T00:35:11;7.28;;;1.05;;
24559;SDS011;12727;49.934;8.656;2023-03-26T00:37:38;6.47;;;1.10;;
24559;SDS011;12727;49.934;8.656;2023-03-26T00:40:06;4.50;;;1.17;;
24559;SDS011;12727;49.934;8.656;2023-03-26T00:42:34;7.30;;;1.10;;
24559;SDS011;12727;49.934;8.656;2023-03-26T00:45:01;7.03;;;1.20;;
24559;SDS011;12727;49.934;8.656;2023-03-26T00:47:28;8.10;;;1.05;;
24559;SDS011;12727;49.934;8.656;2023-03-26T00:49:54;5.57;;;1.05;;
24559;SDS011;12727;49.934;8.656;2023-03-26T00:52:21;5.90;;;0.98;;
24559;SDS011;12727;49.934;8.656;2023-03-26T00:54:49;5.20;;;1.13;;
24559;SDS011;12727;49.934;8.656;2023-03-26T00:57:16;5.50;;;1.00;;
24559;SDS011;12727;49.934;8.656;2023-03-26T00:59:44;7.97;;;1.20;;
24559;SDS011;12727;49.934;8.656;2023-03-26T01:02:11;8.60;;;1.67;;
24559;SDS011;12727;49.934;8.656;2023-03-26T01:04:47;6.60;;;1.50;;
24559;SDS011;12727;49.934;8.656;2023-03-26T01:07:19;9.13;;;1.40;;
24559;SDS011;12727;49.934;8.656;2023-03-26T01:09:53;6.82;;;1.25;;
24559;SDS011;12727;49.934;8.656;2023-03-26T01:12:24;5.47;;;1.25;;
24559;SDS011;12727;49.934;8.656;2023-03-26T01:14:53;5.10;;;1.30;;
24559;SDS011;12727;49.934;8.656;2023-03-26T01:17:24;5.45;;;1.25;;
24559;SDS011;12727;49.934;8.656;2023-03-26T01:20:08;8.52;;;1.40;;
24559;SDS011;12727;49.934;8.656;2023-03-26T01:22:41;6.25;;;1.15;;
24559;SDS011;12727;49.934;8.656;2023-03-26T01:25:16;4.00;;;1.23;;
24559;SDS011;12727;49.934;8.656;2023-03-26T01:27:43;6.35;;;1.10;;
24559;SDS011;12727;49.934;8.656;2023-03-26T01:30:20;7.55;;;1.55;;
24559;SDS011;12727;49.934;8.656;2023-03-26T01:32:57;9.38;;;1.50;;
24559;SDS011;12727;49.934;8.656;2023-03-26T01:40:47;8.13;;;1.45;;
24559;SDS011;12727;49.934;8.656;2023-03-26T01:43:27;9.15;;;1.45;;
24559;SDS011;12727;49.934;8.656;2023-03-26T01:46:14;7.35;;;1.20;;
24559;SDS011;12727;49.934;8.656;2023-03-26T01:48:42;8.65;;;1.42;;
24559;SDS011;12727;49.934;8.656;2023-03-26T01:51:10;5.05;;;1.48;;
24559;SDS011;12727;49.934;8.656;2023-03-26T01:53:37;13.13;;;2.58;;
24559;SDS011;12727;49.934;8.656;2023-03-26T01:56:09;5.75;;;1.17;;
24559;SDS011;12727;49.934;8.656;2023-03-26T01:58:43;9.73;;;1.42;;
24559;SDS011;12727;49.934;8.656;2023-03-26T02:01:29;6.70;;;1.20;;
24559;SDS011;12727;49.934;8.656;2023-03-26T02:04:11;8.88;;;1.23;;
24559;SDS011;12727;49.934;8.656;2023-03-26T02:06:52;8.35;;;1.42;;
24559;SDS011;12727;49.934;8.656;2023-03-26T02:09:26;7.30;;;1.70;;
24559;SDS011;12727;49.934;8.656;2023-03-26T02:11:56;5.60;;;1.33;;
24559;SDS011;12727;49.934;8.656;2023-03-26T02:14:24;10.80;;;1.70;;
24559;SDS011;12727;49.934;8.656;2023-03-26T02:16:49;12.20;;;1.77;;
24559;SDS011;12727;49.934;8.656;2023-03-26T02:19:15;8.25;;;1.60;;
24559;SDS011;12727;49.934;8.656;2023-03-26T02:21:45;9.23;;;1.50;;
24559;SDS011;12727;49.934;8.656;2023-03-26T02:24:15;9.48;;;1.52;;
24559;SDS011;12727;49.934;8.656;2023-03-26T02:26:42;7.30;;;1.30;;
24559;SDS011;12727;49.934;8.656;2023-03-26T02:29:08;9.70;;;1.70;;
24559;SDS011;12727;49.934;8.656;2023-03-26T02:31:34;9.82;;;1.48;;
24559;SDS011;12727;49.934;8.656;2023-03-26T02:34:00;12.68;;;1.42;;
24559;SDS011;12727;49.934;8.656;2023-03-26T02:36:26;9.15;;;1.60;;
24559;SDS011;12727;49.934;8.656;2023-03-26T02:38:52;10.10;;;1.60;;
24559;SDS011;12727;49.934;8.656;2023-03-26T02:41:18;7.40;;;1.35;;
24559;SDS011;12727;49.934;8.656;2023-03-26T02:43:44;7.55;;;1.65;;
24559;SDS011;12727;49.934;8.656;2023-03-26T02:46:10;14.05;;;1.88;;
24559;SDS011;12727;49.934;8.656;2023-03-26T02:48:35;7.32;;;1.67;;
24559;SDS011;12727;49.934;8.656;2023-03-26T02:51:01;9.63;;;1.27;;
24559;SDS011;12727;49.934;8.656;2023-03-26T02:53:28;6.72;;;1.52;;
24559;SDS011;12727;49.934;8.656;2023-03-26T02:55:55;12.38;;;1.80;;
24559;SDS011;12727;49.934;8.656;2023-03-26T02:58:21;8.70;;;1.80;;
24559;SDS011;12727;49.934;8.656;2023-03-26T03:00:49;7.22;;;1.60;;
24559;SDS011;12727;49.934;8.656;2023-03-26T03:03:19;10.50;;;1.77;;
24559;SDS011;12727;49.934;8.656;2023-03-26T03:05:48;13.20;;;1.73;;
24559;SDS011;12727;49.934;8.656;2023-03-26T03:08:18;9.00;;;1.75;;
24559;SDS011;12727;49.934;8.656;2023-03-26T03:11:01;5.07;;;1.38;;
24559;SDS011;12727;49.934;8.656;2023-03-26T03:13:31;13.05;;;2.08;;
24559;SDS011;12727;49.934;8.656;2023-03-26T03:15:56;11.48;;;1.70;;
24559;SDS011;12727;49.934;8.656;2023-03-26T03:18:22;5.95;;;1.50;;
24559;SDS011;12727;49.934;8.656;2023-03-26T03:20:47;8.32;;;1.63;;
24559;SDS011;12727;49.934;8.656;2023-03-26T03:23:13;9.73;;;1.73;;
24559;SDS011;12727;49.934;8.656;2023-03-26T03:25:40;9.05;;;1.80;;
24559;SDS011;12727;49.934;8.656;2023-03-26T03:28:06;9.55;;;1.58;;
24559;SDS011;12727;49.934;8.656;2023-03-26T03:30:32;11.00;;;1.92;;
24559;SDS011;12727;49.934;8.656;2023-03-26T03:32:57;11.13;;;1.85;;
24559;SDS011;12727;49.934;8.656;2023-03-26T03:35:24;7.85;;;1.70;;
24559;SDS011;12727;49.934;8.656;2023-03-26T03:37:51;8.98;;;1.90;;
24559;SDS011;12727;49.934;8.656;2023-03-26T03:40:17;9.13;;;1.60;;
24559;SDS011;12727;49.934;8.656;2023-03-26T03:42:43;13.52;;;1.85;;
24559;SDS011;12727;49.934;8.656;2023-03-26T03:45:10;11.70;;;1.40;;
24559;SDS011;12727;49.934;8.656;2023-03-26T03:47:36;9.80;;;2.05;;
24559;SDS011;12727;49.934;8.656;2023-03-26T03:50:07;13.27;;;1.92;;
24559;SDS011;12727;49.934;8.656;2023-03-26T03:52:33;8.38;;;1.60;;
24559;SDS011;12727;49.934;8.656;2023-03-26T03:54:59;9.10;;;1.83;;
24559;SDS011;12727;49.934;8.656;2023-03-26T03:57:25;6.13;;;1.45;;
24559;SDS011;12727;49.934;8.656;2023-03-26T03:59:51;14.63;;;1.70;;
24559;SDS011;12727;49.934;8.656;2023-03-26T04:02:16;14.10;;;1.95;;
24559;SDS011;12727;49.934;8.656;2023-03-26T04:04:50;12.07;;;1.52;;
24559;SDS011;12727;49.934;8.656;2023-03-26T04:07:16;10.43;;;1.70;;
24559;SDS011;12727;49.934;8.656;2023-03-26T04:09:42;12.20;;;1.67;;
24559;SDS011;12727;49.934;8.656;2023-03-26T04:12:07;7.03;;;1.30;;
24559;SDS011;12727;49.934;8.656;2023-03-26T04:14:33;10.15;;;1.52;;
24559;SDS011;12727;49.934;8.656;2023-03-26T04:16:58;6.47;;;1.48;;
24559;SDS011;12727;49.934;8.656;2023-03-26T04:19:24;10.88;;;1.75;;
24559;SDS011;12727;49.934;8.656;2023-03-26T04:21:51;6.05;;;1.42;;
24559;SDS011;12727;49.934;8.656;2023-03-26T04:24:18;15.15;;;1.70;;
24559;SDS011;12727;49.934;8.656;2023-03-26T04:26:46;12.10;;;1.80;;
24559;SDS011;12727;49.934;8.656;2023-03-26T04:29:13;12.45;;;2.03;;
24559;SDS011;12727;49.934;8.656;2023-03-26T04:31:42;8.27;;;1.65;;
24559;SDS011;12727;49.934;8.656;2023-03-26T04:34:08;10.60;;;2.03;;
24559;SDS011;12727;49.934;8.656;2023-03-26T04:36:42;11.10;;;2.47;;
24559;SDS011;12727;49.934;8.656;2023-03-26T04:39:10;9.55;;;2.42;;
24559;SDS011;12727;49.934;8.656;2023-03-26T04:41:37;12.60;;;2.70;;
24559;SDS011;12727;49.934;8.656;2023-03-26T04:44:03;13.93;;;3.63;;
24559;SDS011;12727;49.934;8.656;2023-03-26T04:46:29;14.48;;;3.25;;
24559;SDS011;12727;49.934;8.656;2023-03-26T04:48:57;18.38;;;3.78;;
24559;SDS011;12727;49.934;8.656;2023-03-26T04:51:24;16.90;;;3.33;;
24559;SDS011;12727;49.934;8.656;2023-03-26T04:53:55;15.15;;;3.53;;
24559;SDS011;12727;49.934;8.656;2023-03-26T04:58:59;16.60;;;3.50;;
24559;SDS011;12727;49.934;8.656;2023-03-26T05:01:25;16.83;;;2.83;;
24559;SDS011;12727;49.934;8.656;2023-03-26T05:03:54;9.38;;;2.22;;
24559;SDS011;12727;49.934;8.656;2023-03-26T05:06:22;10.05;;;1.85;;
24559;SDS011;12727;49.934;8.656;2023-03-26T05:08:49;11.00;;;2.13;;
24559;SDS011;12727;49.934;8.656;2023-03-26T05:11:15;15.82;;;2.20;;
24559;SDS011;12727;49.934;8.656;2023-03-26T05:13:40;9.35;;;2.10;;
24559;SDS011;12727;49.934;8.656;2023-03-26T05:16:07;7.05;;;1.67;;
24559;SDS011;12727;49.934;8.656;2023-03-26T05:18:35;9.07;;;1.70;;
24559;SDS011;12727;49.934;8.656;2023-03-26T05:21:00;11.20;;;2.10;;
24559;SDS011;12727;49.934;8.656;2023-03-26T05:23:26;10.80;;;1.92;;
24559;SDS011;12727;49.934;8.656;2023-03-26T05:25:52;12.48;;;2.47;;
24559;SDS011;12727;49.934;8.656;2023-03-26T05:28:17;12.35;;;2.17;;
24559;SDS011;12727;49.934;8.656;2023-03-26T05:30:45;15.00;;;2.80;;
24559;SDS011;12727;49.934;8.656;2023-03-26T05:33:10;14.00;;;2.50;;
24559;SDS011;12727;49.934;8.656;2023-03-26T05:35:36;10.23;;;3.05;;
24559;SDS011;12727;49.934;8.656;2023-03-26T05:38:02;13.60;;;3.13;;
24559;SDS011;12727;49.934;8.656;2023-03-26T05:40:27;13.63;;;3.13;;
24559;SDS011;12727;49.934;8.656;2023-03-26T05:42:53;9.38;;;2.22;;
24559;SDS011;12727;49.934;8.656;2023-03-26T05:45:19;10.75;;;2.40;;
24559;SDS011;12727;49.934;8.656;2023-03-26T05:47:46;12.68;;;1.75;;
24559;SDS011;12727;49.934;8.656;2023-03-26T05:50:13;10.52;;;2.50;;
24559;SDS011;12727;49.934;8.656;2023-03-26T05:52:39;8.60;;;1.98;;
24559;SDS011;12727;49.934;8.656;2023-03-26T05:55:05;9.75;;;2.67;;
24559;SDS011;12727;49.934;8.656;2023-03-26T05:57:32;13.50;;;2.50;;
24559;SDS011;12727;49.934;8.656;2023-03-26T05:59:59;8.70;;;1.63;;
24559;SDS011;12727;49.934;8.656;2023-03-26T06:02:25;9.50;;;2.22;;
24559;SDS011;12727;49.934;8.656;2023-03-26T06:04:53;6.97;;;2.03;;
24559;SDS011;12727;49.934;8.656;2023-03-26T06:07:20;12.65;;;2.80;;
24559;SDS011;12727;49.934;8.656;2023-03-26T06:09:46;7.57;;;1.98;;
24559;SDS011;12727;49.934;8.656;2023-03-26T06:12:12;11.73;;;2.55;;
24559;SDS011;12727;49.934;8.656;2023-03-26T06:14:38;11.48;;;2.13;;
24559;SDS011;12727;49.934;8.656;2023-03-26T06:17:03;13.85;;;2.28;;
24559;SDS011;12727;49.934;8.656;2023-03-26T06:19:29;15.32;;;2.63;;
24559;SDS011;12727;49.934;8.656;2023-03-26T06:21:54;8.63;;;1.95;;
24559;SDS011;12727;49.934;8.656;2023-03-26T06:24:20;10.45;;;2.05;;
24559;SDS011;12727;49.934;8.656;2023-03-26T06:26:46;9.13;;;1.83;;
24559;SDS011;12727;49.934;8.656;2023-03-26T06:29:12;14.18;;;2.35;;
24559;SDS011;12727;49.934;8.656;2023-03-26T06:31:39;16.10;;;2.22;;
24559;SDS011;12727;49.934;8.656;2023-03-26T06:34:05;9.75;;;1.92;;
24559;SDS011;12727;49.934;8.656;2023-03-26T06:36:31;10.68;;;2.30;;
24559;SDS011;12727;49.934;8.656;2023-03-26T06:38:56;12.98;;;2.20;;
24559;SDS011;12727;49.934;8.656;2023-03-26T06:41:22;12.38;;;1.75;;
24559;SDS011;12727;49.934;8.656;2023-03-26T06:43:47;7.63;;;1.85;;
24559;SDS011;12727;49.934;8.656;2023-03-26T06:46:13;11.40;;;1.88;;
24559;SDS011;12727;49.934;8.656;2023-03-26T06:48:39;10.07;;;2.03;;
24559;SDS011;12727;49.934;8.656;2023-03-26T06:51:13;10.25;;;1.98;;
24559;SDS011;12727;49.934;8.656;2023-03-26T06:53:47;6.45;;;1.90;;
24559;SDS011;12727;49.934;8.656;2023-03-26T06:56:12;12.13;;;2.05;;
24559;SDS011;12727;49.934;8.656;2023-03-26T06:58:38;13.02;;;2.50;;
24559;SDS011;12727;49.934;8.656;2023-03-26T07:01:03;14.73;;;2.65;;
24559;SDS011;12727;49.934;8.656;2023-03-26T07:03:29;12.27;;;2.40;;
24559;SDS011;12727;49.934;8.656;2023-03-26T07:05:55;11.65;;;2.05;;
24559;SDS011;12727;49.934;8.656;2023-03-26T07:08:20;10.00;;;2.20;;
24559;SDS011;12727;49.934;8.656;2023-03-26T07:10:46;12.05;;;2.30;;
24559;SDS011;12727;49.934;8.656;2023-03-26T07:13:11;7.82;;;2.25;;
24559;SDS011;12727;49.934;8.656;2023-03-26T07:15:37;12.18;;;2.58;;
24559;SDS011;12727;49.934;8.656;2023-03-26T07:18:02;12.10;;;2.47;;
24559;SDS011;12727;49.934;8.656;2023-03-26T07:20:28;11.13;;;2.78;;
24559;SDS011;12727;49.934;8.656;2023-03-26T07:22:54;13.73;;;2.53;;
24559;SDS011;12727;49.934;8.656;2023-03-26T07:25:20;13.35;;;2.40;;
24559;SDS011;12727;49.934;8.656;2023-03-26T07:30:49;10.23;;;3.17;;
24559;SDS011;12727;49.934;8.656;2023-03-26T07:38:54;13.32;;;3.10;;
24559;SDS011;12727;49.934;8.656;2023-03-26T07:41:44;11.83;;;2.33;;
24559;SDS011;12727;49.934;8.656;2023-03-26T07:44:25;11.77;;;2.72;;
24559;SDS011;12727;49.934;8.656;2023-03-26T07:47:00;13.80;;;2.60;;
24559;SDS011;12727;49.934;8.656;2023-03-26T07:49:34;9.82;;;2.20;;
24559;SDS011;12727;49.934;8.656;2023-03-26T07:52:01;11.38;;;3.03;;
24559;SDS011;12727;49.934;8.656;2023-03-26T07:54:27;11.35;;;3.60;;
24559;SDS011;12727;49.934;8.656;2023-03-26T07:57:00;11.40;;;2.72;;
24559;SDS011;12727;49.934;8.656;2023-03-26T07:59:38;11.73;;;2.72;;
24559;SDS011;12727;49.934;8.656;2023-03-26T08:05:04;11.50;;;3.08;;
24559;SDS011;12727;49.934;8.656;2023-03-26T08:21:54;11.90;;;3.78;;
24559;SDS011;12727;49.934;8.656;2023-03-26T08:24:29;11.90;;;2.97;;
24559;SDS011;12727;49.934;8.656;2023-03-26T08:32:48;8.32;;;2.70;;
24559;SDS011;12727;49.934;8.656;2023-03-26T08:35:37;11.73;;;2.72;;
24559;SDS011;12727;49.934;8.656;2023-03-26T08:38:09;8.48;;;2.60;;
24559;SDS011;12727;49.934;8.656;2023-03-26T08:52:01;11.57;;;2.50;;
24559;SDS011;12727;49.934;8.656;2023-03-26T08:57:36;13.07;;;2.70;;
24559;SDS011;12727;49.934;8.656;2023-03-26T09:19:59;7.20;;;2.53;;
24559;SDS011;12727;49.934;8.656;2023-03-26T09:22:52;7.40;;;3.45;;
24559;SDS011;12727;49.934;8.656;2023-03-26T09:37:16;6.22;;;1.70;;
24559;SDS011;12727;49.934;8.656;2023-03-26T09:52:05;9.40;;;1.80;;
24559;SDS011;12727;49.934;8.656;2023-03-26T10:08:58;3.95;;;1.30;;
24559;SDS011;12727;49.934;8.656;2023-03-26T10:14:25;5.43;;;1.40;;
24559;SDS011;12727;49.934;8.656;2023-03-26T10:17:02;4.38;;;1.17;;
24559;SDS011;12727;49.934;8.656;2023-03-26T10:22:22;9.02;;;1.63;;
24559;SDS011;12727;49.934;8.656;2023-03-26T10:28:32;4.82;;;1.13;;
24559;SDS011;12727;49.934;8.656;2023-03-26T10:34:21;4.22;;;1.52;;
24559;SDS011;12727;49.934;8.656;2023-03-26T10:57:10;2.83;;;0.70;;
24559;SDS011;12727;49.934;8.656;2023-03-26T10:59:47;3.17;;;1.30;;
24559;SDS011;12727;49.934;8.656;2023-03-26T11:02:26;4.88;;;0.90;;
24559;SDS011;12727;49.934;8.656;2023-03-26T11:05:18;3.15;;;0.60;;
24559;SDS011;12727;49.934;8.656;2023-03-26T11:10:56;4.50;;;1.08;;
24559;SDS011;12727;49.934;8.656;2023-03-26T11:13:37;6.97;;;1.40;;
24559;SDS011;12727;49.934;8.656;2023-03-26T11:18:50;3.67;;;1.13;;
24559;SDS011;12727;49.934;8.656;2023-03-26T11:24:27;2.58;;;0.98;;
24559;SDS011;12727;49.934;8.656;2023-03-26T11:27:11;3.78;;;1.05;;
24559;SDS011;12727;49.934;8.656;2023-03-26T11:30:20;5.47;;;0.90;;
24559;SDS011;12727;49.934;8.656;2023-03-26T11:33:02;4.53;;;1.00;;
24559;SDS011;12727;49.934;8.656;2023-03-26T11:35:40;3.33;;;0.98;;
24559;SDS011;12727;49.934;8.656;2023-03-26T11:41:23;5.93;;;1.10;;
24559;SDS011;12727;49.934;8.656;2023-03-26T11:43:53;4.95;;;0.90;;
24559;SDS011;12727;49.934;8.656;2023-03-26T11:46:30;5.38;;;1.67;;
24559;SDS011;12727;49.934;8.656;2023-03-26T11:49:02;2.08;;;1.15;;
24559;SDS011;12727;49.934;8.656;2023-03-26T11:51:33;4.20;;;1.15;;
24559;SDS011;12727;49.934;8.656;2023-03-26T11:54:01;6.45;;;1.33;;
24559;SDS011;12727;49.934;8.656;2023-03-26T11:59:31;8.80;;;2.05;;
24559;SDS011;12727;49.934;8.656;2023-03-26T12:04:42;3.58;;;1.45;;
24559;SDS011;12727;49.934;8.656;2023-03-26T12:07:20;4.82;;;1.65;;
24559;SDS011;12727;49.934;8.656;2023-03-26T12:10:06;3.78;;;1.55;;
24559;SDS011;12727;49.934;8.656;2023-03-26T12:12:45;4.60;;;1.73;;
24559;SDS011;12727;49.934;8.656;2023-03-26T12:15:12;6.57;;;2.22;;
24559;SDS011;12727;49.934;8.656;2023-03-26T12:17:39;6.22;;;1.77;;
24559;SDS011;12727;49.934;8.656;2023-03-26T12:20:23;4.45;;;0.88;;
24559;SDS011;12727;49.934;8.656;2023-03-26T12:22:56;4.40;;;1.25;;
24559;SDS011;12727;49.934;8.656;2023-03-26T12:25:32;3.50;;;1.10;;
24559;SDS011;12727;49.934;8.656;2023-03-26T12:30:34;3.97;;;1.40;;
24559;SDS011;12727;49.934;8.656;2023-03-26T12:33:04;3.40;;;1.00;;
24559;SDS011;12727;49.934;8.656;2023-03-26T12:35:38;1.48;;;0.30;;
24559;SDS011;12727;49.934;8.656;2023-03-26T12:43:40;3.47;;;0.98;;
24559;SDS011;12727;49.934;8.656;2023-03-26T12:46:25;2.83;;;0.65;;
24559;SDS011;12727;49.934;8.656;2023-03-26T12:48:54;2.60;;;0.55;;
24559;SDS011;12727;49.934;8.656;2023-03-26T12:51:34;1.27;;;0.55;;
24559;SDS011;12727;49.934;8.656;2023-03-26T12:56:47;0.88;;;0.38;;
24559;SDS011;12727;49.934;8.656;2023-03-26T13:07:23;3.10;;;0.80;;
24559;SDS011;12727;49.934;8.656;2023-03-26T13:15:50;5.93;;;0.70;;
24559;SDS011;12727;49.934;8.656;2023-03-26T13:18:23;3.17;;;0.88;;
24559;SDS011;12727;49.934;8.656;2023-03-26T13:21:07;2.20;;;0.40;;
24559;SDS011;12727;49.934;8.656;2023-03-26T13:23:52;0.55;;;0.20;;
24559;SDS011;12727;49.934;8.656;2023-03-26T13:32:11;1.73;;;0.20;;
24559;SDS011;12727;49.934;8.656;2023-03-26T13:35:00;0.45;;;0.25;;
24559;SDS011;12727;49.934;8.656;2023-03-26T13:46:22;2.05;;;0.40;;
24559;SDS011;12727;49.934;8.656;2023-03-26T13:49:12;2.40;;;0.30;;
24559;SDS011;12727;49.934;8.656;2023-03-26T13:51:45;2.03;;;0.30;;
24559;SDS011;12727;49.934;8.656;2023-03-26T13:54:54;1.35;;;0.25;;
24559;SDS011;12727;49.934;8.656;2023-03-26T13:57:33;2.30;;;0.50;;
24559;SDS011;12727;49.934;8.656;2023-03-26T14:02:48;1.65;;;0.40;;
24559;SDS011;12727;49.934;8.656;2023-03-26T14:05:23;0.88;;;0.10;;
24559;SDS011;12727;49.934;8.656;2023-03-26T14:08:04;3.85;;;0.40;;
24559;SDS011;12727;49.934;8.656;2023-03-26T14:10:39;0.50;;;0.13;;
24559;SDS011;12727;49.934;8.656;2023-03-26T14:13:44;3.38;;;0.65;;
24559;SDS011;12727;49.934;8.656;2023-03-26T14:16:20;2.08;;;0.32;;
24559;SDS011;12727;49.934;8.656;2023-03-26T14:18:51;4.18;;;0.40;;
24559;SDS011;12727;49.934;8.656;2023-03-26T14:27:36;1.83;;;0.45;;
24559;SDS011;12727;49.934;8.656;2023-03-26T14:44:27;1.30;;;0.43;;
24559;SDS011;12727;49.934;8.656;2023-03-26T14:54:54;3.13;;;0.47;;
24559;SDS011;12727;49.934;8.656;2023-03-26T15:02:50;2.42;;;0.50;;
24559;SDS011;12727;49.934;8.656;2023-03-26T15:22:39;7.55;;;1.02;;
24559;SDS011;12727;49.934;8.656;2023-03-26T15:40:05;2.78;;;0.60;;
24559;SDS011;12727;49.934;8.656;2023-03-26T15:43:09;4.47;;;0.45;;
24559;SDS011;12727;49.934;8.656;2023-03-26T15:48:04;4.55;;;0.68;;
24559;SDS011;12727;49.934;8.656;2023-03-26T15:50:37;11.30;;;0.63;;
24559;SDS011;12727;49.934;8.656;2023-03-26T15:53:11;3.90;;;0.68;;
24559;SDS011;12727;49.934;8.656;2023-03-26T15:56:11;4.45;;;0.75;;
24559;SDS011;12727;49.934;8.656;2023-03-26T15:59:10;4.65;;;0.63;;
24559;SDS011;12727;49.934;8.656;2023-03-26T16:01:46;3.13;;;0.60;;
24559;SDS011;12727;49.934;8.656;2023-03-26T16:04:40;2.15;;;0.75;;
24559;SDS011;12727;49.934;8.656;2023-03-26T16:18:39;2.05;;;0.70;;
24559;SDS011;12727;49.934;8.656;2023-03-26T16:29:30;3.50;;;0.50;;
24559;SDS011;12727;49.934;8.656;2023-03-26T16:35:21;2.22;;;0.60;;
24559;SDS011;12727;49.934;8.656;2023-03-26T16:41:18;0.68;;;0.30;;
24559;SDS011;12727;49.934;8.656;2023-03-26T16:43:57;3.03;;;0.40;;
24559;SDS011;12727;49.934;8.656;2023-03-26T16:49:18;0.98;;;0.30;;
24559;SDS011;12727;49.934;8.656;2023-03-26T17:00:47;1.60;;;0.45;;
24559;SDS011;12727;49.934;8.656;2023-03-26T17:20:10;4.65;;;1.50;;
24559;SDS011;12727;49.934;8.656;2023-03-26T17:42:37;2.88;;;0.60;;
24559;SDS011;12727;49.934;8.656;2023-03-26T17:45:27;5.47;;;1.98;;
24559;SDS011;12727;49.934;8.656;2023-03-26T17:50:53;2.58;;;0.75;;
24559;SDS011;12727;49.934;8.656;2023-03-26T17:55:56;1.73;;;0.65;;
24559;SDS011;12727;49.934;8.656;2023-03-26T17:58:28;1.98;;;0.85;;
24559;SDS011;12727;49.934;8.656;2023-03-26T18:01:04;2.38;;;0.98;;
24559;SDS011;12727;49.934;8.656;2023-03-26T18:03:42;3.22;;;1.00;;
24559;SDS011;12727;49.934;8.656;2023-03-26T18:06:15;3.97;;;0.93;;
24559;SDS011;12727;49.934;8.656;2023-03-26T18:12:18;2.88;;;0.90;;
24559;SDS011;12727;49.934;8.656;2023-03-26T18:15:12;2.72;;;0.80;;
24559;SDS011;12727;49.934;8.656;2023-03-26T18:18:10;1.88;;;0.70;;
24559;SDS011;12727;49.934;8.656;2023-03-26T18:20:42;2.90;;;0.80;;
24559;SDS011;12727;49.934;8.656;2023-03-26T18:26:18;2.47;;;0.85;;
24559;SDS011;12727;49.934;8.656;2023-03-26T18:31:59;1.33;;;0.50;;
24559;SDS011;12727;49.934;8.656;2023-03-26T18:41:02;3.55;;;0.60;;
24559;SDS011;12727;49.934;8.656;2023-03-26T18:43:30;1.65;;;0.50;;
24559;SDS011;12727;49.934;8.656;2023-03-26T18:46:10;1.88;;;0.63;;
24559;SDS011;12727;49.934;8.656;2023-03-26T18:49:08;1.75;;;0.60;;
24559;SDS011;12727;49.934;8.656;2023-03-26T18:51:44;1.70;;;0.50;;
24559;SDS011;12727;49.934;8.656;2023-03-26T18:54:15;3.17;;;0.40;;
24559;SDS011;12727;49.934;8.656;2023-03-26T18:59:28;1.50;;;0.50;;
24559;SDS011;12727;49.934;8.656;2023-03-26T19:01:59;2.30;;;0.50;;
24559;SDS011;12727;49.934;8.656;2023-03-26T19:04:28;2.60;;;0.60;;
24559;SDS011;12727;49.934;8.656;2023-03-26T19:06:57;2.25;;;0.65;;
24559;SDS011;12727;49.934;8.656;2023-03-26T19:09:24;2.13;;;0.70;;
24559;SDS011;12727;49.934;8.656;2023-03-26T19:11:55;2.35;;;0.57;;
24559;SDS011;12727;49.934;8.656;2023-03-26T19:14:23;1.52;;;0.60;;
24559;SDS011;12727;49.934;8.656;2023-03-26T19:16:59;1.35;;;0.70;;
24559;SDS011;12727;49.934;8.656;2023-03-26T19:19:36;5.30;;;1.23;;
24559;SDS011;12727;49.934;8.656;2023-03-26T19:22:05;4.70;;;1.40;;
24559;SDS011;12727;49.934;8.656;2023-03-26T19:24:33;3.58;;;1.10;;
24559;SDS011;12727;49.934;8.656;2023-03-26T19:26:59;2.55;;;0.98;;
24559;SDS011;12727;49.934;8.656;2023-03-26T19:29:27;2.78;;;1.10;;
24559;SDS011;12727;49.934;8.656;2023-03-26T19:32:12;4.50;;;0.98;;
24559;SDS011;12727;49.934;8.656;2023-03-26T19:34:43;3.58;;;0.77;;
24559;SDS011;12727;49.934;8.656;2023-03-26T19:39:51;1.70;;;0.60;;
24559;SDS011;12727;49.934;8.656;2023-03-26T19:42:20;3.63;;;1.08;;
24559;SDS011;12727;49.934;8.656;2023-03-26T19:44:55;3.25;;;0.85;;
24559;SDS011;12727;49.934;8.656;2023-03-26T19:47:25;2.70;;;0.80;;
24559;SDS011;12727;49.934;8.656;2023-03-26T19:50:12;4.38;;;1.08;;
24559;SDS011;12727;49.934;8.656;2023-03-26T19:52:55;3.08;;;0.90;;
24559;SDS011;12727;49.934;8.656;2023-03-26T19:55:41;3.20;;;0.90;;
24559;SDS011;12727;49.934;8.656;2023-03-26T19:58:17;3.72;;;1.20;;
24559;SDS011;12727;49.934;8.656;2023-03-26T20:00:43;5.18;;;1.10;;
24559;SDS011;12727;49.934;8.656;2023-03-26T20:03:09;3.15;;;1.17;;
24559;SDS011;12727;49.934;8.656;2023-03-26T20:05:35;5.25;;;1.67;;
24559;SDS011;12727;49.934;8.656;2023-03-26T20:08:07;5.13;;;1.38;;
24559;SDS011;12727;49.934;8.656;2023-03-26T20:10:37;3.55;;;1.33;;
24559;SDS011;12727;49.934;8.656;2023-03-26T20:13:03;4.47;;;1.30;;
24559;SDS011;12727;49.934;8.656;2023-03-26T20:15:38;4.60;;;1.50;;
24559;SDS011;12727;49.934;8.656;2023-03-26T20:18:06;6.07;;;2.13;;
24559;SDS011;12727;49.934;8.656;2023-03-26T20:20:32;4.80;;;1.67;;
24559;SDS011;12727;49.934;8.656;2023-03-26T20:22:58;3.97;;;1.80;;
24559;SDS011;12727;49.934;8.656;2023-03-26T20:25:27;4.25;;;1.40;;
24559;SDS011;12727;49.934;8.656;2023-03-26T20:27:57;2.70;;;1.00;;
24559;SDS011;12727;49.934;8.656;2023-03-26T20:30:23;6.25;;;1.48;;
24559;SDS011;12727;49.934;8.656;2023-03-26T20:32:49;4.55;;;0.93;;
24559;SDS011;12727;49.934;8.656;2023-03-26T20:35:16;6.25;;;1.38;;
24559;SDS011;12727;49.934;8.656;2023-03-26T20:37:45;4.22;;;1.23;;
24559;SDS011;12727;49.934;8.656;2023-03-26T20:40:11;4.18;;;1.02;;
24559;SDS011;12727;49.934;8.656;2023-03-26T20:42:38;3.45;;;1.17;;
24559;SDS011;12727;49.934;8.656;2023-03-26T20:45:14;3.03;;;1.08;;
24559;SDS011;12727;49.934;8.656;2023-03-26T20:47:47;3.40;;;1.00;;
24559;SDS011;12727;49.934;8.656;2023-03-26T20:50:18;2.95;;;1.23;;
24559;SDS011;12727;49.934;8.656;2023-03-26T20:52:48;4.47;;;1.23;;
24559;SDS011;12727;49.934;8.656;2023-03-26T20:55:15;3.35;;;0.90;;
24559;SDS011;12727;49.934;8.656;2023-03-26T20:57:45;3.17;;;1.10;;
24559;SDS011;12727;49.934;8.656;2023-03-26T21:00:12;2.20;;;0.80;;
24559;SDS011;12727;49.934;8.656;2023-03-26T21:02:43;2.63;;;0.95;;
24559;SDS011;12727;49.934;8.656;2023-03-26T21:05:09;4.60;;;1.20;;
24559;SDS011;12727;49.934;8.656;2023-03-26T21:07:41;2.35;;;1.40;;
24559;SDS011;12727;49.934;8.656;2023-03-26T21:10:11;3.88;;;1.52;;
24559;SDS011;12727;49.934;8.656;2023-03-26T21:13:01;4.35;;;1.70;;
24559;SDS011;12727;49.934;8.656;2023-03-26T21:15:32;5.70;;;1.92;;
24559;SDS011;12727;49.934;8.656;2023-03-26T21:17:58;2.90;;;1.40;;
24559;SDS011;12727;49.934;8.656;2023-03-26T21:20:25;3.40;;;1.80;;
24559;SDS011;12727;49.934;8.656;2023-03-26T21:22:59;3.20;;;1.80;;